sensor_id;sensor_type;location;lat;lon;timestamp;pressure;altitude;pressure_sealevel;temperature;humidity
33155;BME280;19511;42.682;23.332;2023-05-29T00:00:11;94967.50;;;13.13;100.00
33155;BME280;19511;42.682;23.332;2023-05-29T00:02:39;94964.41;;;13.11;100.00
33155;BME280;19511;42.682;23.332;2023-05-29T00:05:13;94965.47;;;13.17;100.00
33155;BME280;19511;42.682;23.332;2023-05-29T00:07:42;94971.34;;;13.19;100.00
33155;BME280;19511;42.682;23.332;2023-05-29T00:10:09;94968.03;;;13.07;100.00
33155;BME280;19511;42.682;23.332;2023-05-29T00:12:35;94969.34;;;13.03;100.00
33155;BME280;19511;42.682;23.332;2023-05-29T00:15:01;94970.63;;;12.98;100.00
33155;BME280;19511;42.682;23.332;2023-05-29T00:17:29;94980.44;;;13.03;100.00
33155;BME280;19511;42.682;23.332;2023-05-29T00:20:00;94971.13;;;12.93;100.00
33155;BME280;19511;42.682;23.332;2023-05-29T00:22:28;94969.69;;;12.85;100.00
33155;BME280;19511;42.682;23.332;2023-05-29T00:24:53;94891.09;;;12.35;100.00
33155;BME280;19511;42.682;23.332;2023-05-29T00:27:19;94951.03;;;12.69;100.00
33155;BME280;19511;42.682;23.332;2023-05-29T00:29:45;94962.84;;;12.73;100.00
33155;BME280;19511;42.682;23.332;2023-05-29T00:32:14;94908.59;;;12.32;100.00
33155;BME280;19511;42.682;23.332;2023-05-29T00:34:43;94979.34;;;12.80;100.00
33155;BME280;19511;42.682;23.332;2023-05-29T00:37:08;94978.84;;;12.85;100.00
33155;BME280;19511;42.682;23.332;2023-05-29T00:39:34;94977.97;;;12.88;100.00
33155;BME280;19511;42.682;23.332;2023-05-29T00:42:00;94970.56;;;12.82;100.00
33155;BME280;19511;42.682;23.332;2023-05-29T00:44:25;94981.59;;;12.85;100.00
33155;BME280;19511;42.682;23.332;2023-05-29T00:46:56;94977.19;;;12.88;100.00
33155;BME280;19511;42.682;23.332;2023-05-29T00:49:26;94883.22;;;12.33;100.00
33155;BME280;19511;42.682;23.332;2023-05-29T00:51:53;94975.72;;;13.00;100.00
33155;BME280;19511;42.682;23.332;2023-05-29T00:54:24;94911.19;;;12.59;100.00
33155;BME280;19511;42.682;23.332;2023-05-29T00:56:52;94975.03;;;12.96;100.00
33155;BME280;19511;42.682;23.332;2023-05-29T00:59:18;94957.75;;;12.88;100.00
33155;BME280;19511;42.682;23.332;2023-05-29T01:01:47;94964.00;;;12.92;100.00
33155;BME280;19511;42.682;23.332;2023-05-29T01:04:15;94881.00;;;12.45;100.00
33155;BME280;19511;42.682;23.332;2023-05-29T01:06:40;94966.19;;;13.01;100.00
33155;BME280;19511;42.682;23.332;2023-05-29T01:09:06;94963.25;;;12.92;100.00
33155;BME280;19511;42.682;23.332;2023-05-29T01:12:08;94967.91;;;12.95;100.00
33155;BME280;19511;42.682;23.332;2023-05-29T01:17:51;94968.13;;;12.67;100.00
33155;BME280;19511;42.682;23.332;2023-05-29T01:23:27;94975.16;;;12.52;100.00
33155;BME280;19511;42.682;23.332;2023-05-29T01:29:01;94893.69;;;11.82;100.00
33155;BME280;19511;42.682;23.332;2023-05-29T01:31:29;94891.00;;;11.78;100.00
33155;BME280;19511;42.682;23.332;2023-05-29T01:33:57;94985.88;;;12.30;100.00
33155;BME280;19511;42.682;23.332;2023-05-29T01:36:24;94971.25;;;12.29;100.00
33155;BME280;19511;42.682;23.332;2023-05-29T01:38:51;94891.78;;;11.79;100.00
33155;BME280;19511;42.682;23.332;2023-05-29T01:41:18;94970.81;;;12.31;100.00
33155;BME280;19511;42.682;23.332;2023-05-29T01:43:49;94968.38;;;12.33;100.00
33155;BME280;19511;42.682;23.332;2023-05-29T01:46:16;94888.41;;;11.91;100.00
33155;BME280;19511;42.682;23.332;2023-05-29T01:48:42;94964.53;;;12.47;100.00
33155;BME280;19511;42.682;23.332;2023-05-29T01:51:13;94979.66;;;12.46;100.00
33155;BME280;19511;42.682;23.332;2023-05-29T01:53:39;94900.19;;;11.95;100.00
33155;BME280;19511;42.682;23.332;2023-05-29T01:56:06;94877.78;;;11.86;100.00
33155;BME280;19511;42.682;23.332;2023-05-29T01:58:34;94960.38;;;12.38;100.00
33155;BME280;19511;42.682;23.332;2023-05-29T02:01:00;94961.44;;;12.45;100.00
33155;BME280;19511;42.682;23.332;2023-05-29T02:03:26;94969.75;;;12.45;100.00
33155;BME280;19511;42.682;23.332;2023-05-29T02:05:54;94954.13;;;12.34;100.00
33155;BME280;19511;42.682;23.332;2023-05-29T02:08:21;94975.56;;;12.50;100.00
33155;BME280;19511;42.682;23.332;2023-05-29T02:10:46;94959.50;;;12.41;100.00
33155;BME280;19511;42.682;23.332;2023-05-29T02:13:12;94963.34;;;12.48;100.00
33155;BME280;19511;42.682;23.332;2023-05-29T02:15:40;94891.69;;;12.06;100.00
33155;BME280;19511;42.682;23.332;2023-05-29T02:18:11;94955.88;;;12.45;100.00
33155;BME280;19511;42.682;23.332;2023-05-29T02:20:39;94951.53;;;12.44;100.00
33155;BME280;19511;42.682;23.332;2023-05-29T02:23:05;94917.84;;;12.25;100.00
33155;BME280;19511;42.682;23.332;2023-05-29T02:25:30;94942.72;;;12.49;100.00
33155;BME280;19511;42.682;23.332;2023-05-29T02:27:56;94962.00;;;12.56;100.00
33155;BME280;19511;42.682;23.332;2023-05-29T02:30:21;94878.69;;;12.03;100.00
33155;BME280;19511;42.682;23.332;2023-05-29T02:32:47;94967.09;;;12.78;100.00
33155;BME280;19511;42.682;23.332;2023-05-29T02:35:12;94952.38;;;12.61;100.00
33155;BME280;19511;42.682;23.332;2023-05-29T02:37:42;94965.41;;;12.64;100.00
33155;BME280;19511;42.682;23.332;2023-05-29T02:40:08;94966.19;;;12.64;100.00
33155;BME280;19511;42.682;23.332;2023-05-29T02:42:34;94976.50;;;12.64;100.00
33155;BME280;19511;42.682;23.332;2023-05-29T02:44:59;94969.53;;;12.55;100.00
33155;BME280;19511;42.682;23.332;2023-05-29T02:47:25;94971.72;;;12.64;100.00
33155;BME280;19511;42.682;23.332;2023-05-29T02:49:50;94964.47;;;12.50;100.00
33155;BME280;19511;42.682;23.332;2023-05-29T02:52:16;94960.72;;;12.40;100.00
33155;BME280;19511;42.682;23.332;2023-05-29T02:54:41;94971.81;;;12.40;100.00
33155;BME280;19511;42.682;23.332;2023-05-29T02:57:07;94966.75;;;12.35;100.00
33155;BME280;19511;42.682;23.332;2023-05-29T02:59:32;94894.41;;;11.86;100.00
33155;BME280;19511;42.682;23.332;2023-05-29T03:01:58;94885.44;;;11.78;100.00
33155;BME280;19511;42.682;23.332;2023-05-29T03:04:23;94971.59;;;12.31;100.00
33155;BME280;19511;42.682;23.332;2023-05-29T03:06:48;94972.31;;;12.35;100.00
33155;BME280;19511;42.682;23.332;2023-05-29T03:09:14;94978.16;;;12.41;100.00
33155;BME280;19511;42.682;23.332;2023-05-29T03:11:42;94904.75;;;12.05;100.00
33155;BME280;19511;42.682;23.332;2023-05-29T03:14:07;94963.34;;;12.48;100.00
33155;BME280;19511;42.682;23.332;2023-05-29T03:16:32;94975.56;;;12.50;100.00
33155;BME280;19511;42.682;23.332;2023-05-29T03:18:58;94963.78;;;12.46;100.00
33155;BME280;19511;42.682;23.332;2023-05-29T03:21:23;94964.91;;;12.49;100.00
33155;BME280;19511;42.682;23.332;2023-05-29T03:23:49;94961.72;;;12.50;100.00
33155;BME280;19511;42.682;23.332;2023-05-29T03:26:14;94974.50;;;12.64;100.00
33155;BME280;19511;42.682;23.332;2023-05-29T03:28:40;94979.72;;;12.62;100.00
33155;BME280;19511;42.682;23.332;2023-05-29T03:31:06;94969.47;;;12.59;100.00
33155;BME280;19511;42.682;23.332;2023-05-29T03:33:33;94976.84;;;12.66;100.00
33155;BME280;19511;42.682;23.332;2023-05-29T03:35:58;94984.97;;;12.77;100.00
33155;BME280;19511;42.682;23.332;2023-05-29T03:38:24;94856.88;;;12.05;100.00
33155;BME280;19511;42.682;23.332;2023-05-29T03:40:49;94986.53;;;12.78;100.00
33155;BME280;19511;42.682;23.332;2023-05-29T03:43:15;94990.50;;;12.77;100.00
33155;BME280;19511;42.682;23.332;2023-05-29T03:45:40;94930.38;;;12.33;100.00
33155;BME280;19511;42.682;23.332;2023-05-29T03:48:06;94996.50;;;12.75;100.00
33155;BME280;19511;42.682;23.332;2023-05-29T03:50:31;95006.94;;;12.87;100.00
33155;BME280;19511;42.682;23.332;2023-05-29T03:52:57;95006.78;;;12.95;100.00
33155;BME280;19511;42.682;23.332;2023-05-29T03:55:22;94986.41;;;13.01;100.00
33155;BME280;19511;42.682;23.332;2023-05-29T03:57:48;94926.69;;;12.77;100.00
33155;BME280;19511;42.682;23.332;2023-05-29T04:00:13;95007.44;;;13.39;100.00
33155;BME280;19511;42.682;23.332;2023-05-29T04:02:39;95007.97;;;13.50;100.00
33155;BME280;19511;42.682;23.332;2023-05-29T04:05:16;95006.84;;;13.64;100.00
33155;BME280;19511;42.682;23.332;2023-05-29T04:07:41;95004.75;;;13.85;100.00
33155;BME280;19511;42.682;23.332;2023-05-29T04:10:07;95019.00;;;14.03;100.00
33155;BME280;19511;42.682;23.332;2023-05-29T04:12:33;95034.25;;;14.12;100.00
33155;BME280;19511;42.682;23.332;2023-05-29T04:15:01;94959.75;;;13.74;100.00
33155;BME280;19511;42.682;23.332;2023-05-29T04:17:26;95018.59;;;14.18;100.00
33155;BME280;19511;42.682;23.332;2023-05-29T04:19:52;95013.31;;;14.24;100.00
33155;BME280;19511;42.682;23.332;2023-05-29T04:22:21;95027.66;;;14.22;100.00
33155;BME280;19511;42.682;23.332;2023-05-29T04:24:46;95005.75;;;14.08;100.00
33155;BME280;19511;42.682;23.332;2023-05-29T04:27:12;94998.13;;;13.95;100.00
33155;BME280;19511;42.682;23.332;2023-05-29T04:29:42;95014.09;;;14.24;100.00
33155;BME280;19511;42.682;23.332;2023-05-29T04:32:10;95018.47;;;14.38;100.00
33155;BME280;19511;42.682;23.332;2023-05-29T04:34:39;95022.13;;;14.51;100.00
33155;BME280;19511;42.682;23.332;2023-05-29T04:37:05;94957.75;;;14.20;100.00
33155;BME280;19511;42.682;23.332;2023-05-29T04:39:31;95021.31;;;14.80;100.00
33155;BME280;19511;42.682;23.332;2023-05-29T04:41:57;95026.59;;;14.91;100.00
33155;BME280;19511;42.682;23.332;2023-05-29T04:44:29;95025.50;;;15.01;100.00
33155;BME280;19511;42.682;23.332;2023-05-29T04:46:54;95023.97;;;15.13;100.00
33155;BME280;19511;42.682;23.332;2023-05-29T04:49:22;95023.31;;;15.22;100.00
33155;BME280;19511;42.682;23.332;2023-05-29T04:51:52;95020.94;;;15.08;100.00
33155;BME280;19511;42.682;23.332;2023-05-29T04:54:17;95028.50;;;14.94;100.00
33155;BME280;19511;42.682;23.332;2023-05-29T04:56:45;95035.09;;;15.00;100.00
33155;BME280;19511;42.682;23.332;2023-05-29T04:59:13;95040.22;;;15.02;100.00
33155;BME280;19511;42.682;23.332;2023-05-29T05:01:45;95032.84;;;14.95;100.00
33155;BME280;19511;42.682;23.332;2023-05-29T05:04:12;95044.56;;;15.03;100.00
33155;BME280;19511;42.682;23.332;2023-05-29T05:06:45;95033.31;;;15.07;100.00
33155;BME280;19511;42.682;23.332;2023-05-29T05:09:10;95040.66;;;15.13;100.00
33155;BME280;19511;42.682;23.332;2023-05-29T05:11:37;95043.16;;;15.24;100.00
33155;BME280;19511;42.682;23.332;2023-05-29T05:14:03;95051.72;;;15.30;100.00
33155;BME280;19511;42.682;23.332;2023-05-29T05:16:28;95051.50;;;15.24;100.00
33155;BME280;19511;42.682;23.332;2023-05-29T05:18:57;95063.13;;;15.35;100.00
33155;BME280;19511;42.682;23.332;2023-05-29T05:21:22;95064.91;;;15.42;100.00
33155;BME280;19511;42.682;23.332;2023-05-29T05:23:52;95062.38;;;15.48;100.00
33155;BME280;19511;42.682;23.332;2023-05-29T05:26:17;95052.66;;;15.40;100.00
33155;BME280;19511;42.682;23.332;2023-05-29T05:28:42;95053.56;;;15.49;100.00
33155;BME280;19511;42.682;23.332;2023-05-29T05:31:08;94988.44;;;15.17;100.00
33155;BME280;19511;42.682;23.332;2023-05-29T05:33:34;95054.91;;;15.71;100.00
33155;BME280;19511;42.682;23.332;2023-05-29T05:36:07;95042.72;;;15.77;100.00
33155;BME280;19511;42.682;23.332;2023-05-29T05:38:36;95055.78;;;15.80;100.00
33155;BME280;19511;42.682;23.332;2023-05-29T05:41:04;95046.97;;;15.82;100.00
33155;BME280;19511;42.682;23.332;2023-05-29T05:43:30;95045.41;;;15.81;100.00
33155;BME280;19511;42.682;23.332;2023-05-29T05:45:57;95058.72;;;15.90;100.00
33155;BME280;19511;42.682;23.332;2023-05-29T05:48:23;94988.22;;;15.63;100.00
33155;BME280;19511;42.682;23.332;2023-05-29T05:50:48;95061.66;;;16.34;100.00
33155;BME280;19511;42.682;23.332;2023-05-29T05:53:14;95049.41;;;16.54;100.00
33155;BME280;19511;42.682;23.332;2023-05-29T05:55:39;94979.88;;;16.11;100.00
33155;BME280;19511;42.682;23.332;2023-05-29T05:58:05;95035.53;;;16.28;100.00
33155;BME280;19511;42.682;23.332;2023-05-29T06:00:34;94982.09;;;16.16;100.00
33155;BME280;19511;42.682;23.332;2023-05-29T06:03:02;95038.13;;;16.79;100.00
33155;BME280;19511;42.682;23.332;2023-05-29T06:05:29;95041.78;;;17.11;100.00
33155;BME280;19511;42.682;23.332;2023-05-29T06:07:55;95039.44;;;17.10;100.00
33155;BME280;19511;42.682;23.332;2023-05-29T06:10:21;95037.13;;;17.08;100.00
33155;BME280;19511;42.682;23.332;2023-05-29T06:12:46;95022.88;;;17.16;100.00
33155;BME280;19511;42.682;23.332;2023-05-29T06:15:15;95040.56;;;17.12;100.00
33155;BME280;19511;42.682;23.332;2023-05-29T06:17:42;95044.38;;;16.84;100.00
33155;BME280;19511;42.682;23.332;2023-05-29T06:20:08;95011.81;;;16.68;100.00
33155;BME280;19511;42.682;23.332;2023-05-29T06:22:40;95034.91;;;17.03;100.00
33155;BME280;19511;42.682;23.332;2023-05-29T06:25:07;95052.97;;;17.11;100.00
33155;BME280;19511;42.682;23.332;2023-05-29T06:27:34;95046.97;;;17.22;100.00
33155;BME280;19511;42.682;23.332;2023-05-29T06:30:02;95054.00;;;17.27;100.00
33155;BME280;19511;42.682;23.332;2023-05-29T06:32:32;95055.41;;;17.32;100.00
33155;BME280;19511;42.682;23.332;2023-05-29T06:35:00;95049.91;;;17.41;100.00
33155;BME280;19511;42.682;23.332;2023-05-29T06:37:32;95056.75;;;17.49;100.00
33155;BME280;19511;42.682;23.332;2023-05-29T06:40:02;94964.22;;;16.93;100.00
33155;BME280;19511;42.682;23.332;2023-05-29T06:42:31;95047.50;;;17.61;100.00
33155;BME280;19511;42.682;23.332;2023-05-29T06:44:57;95038.25;;;17.83;100.00
33155;BME280;19511;42.682;23.332;2023-05-29T06:47:24;95046.75;;;18.02;100.00
33155;BME280;19511;42.682;23.332;2023-05-29T06:49:49;95042.28;;;18.23;100.00
33155;BME280;19511;42.682;23.332;2023-05-29T06:52:15;95047.09;;;18.22;100.00
33155;BME280;19511;42.682;23.332;2023-05-29T06:54:44;95036.66;;;18.04;100.00
33155;BME280;19511;42.682;23.332;2023-05-29T06:57:10;94973.25;;;17.70;100.00
33155;BME280;19511;42.682;23.332;2023-05-29T06:59:35;95050.06;;;17.87;100.00
33155;BME280;19511;42.682;23.332;2023-05-29T07:02:07;95045.09;;;17.82;100.00
33155;BME280;19511;42.682;23.332;2023-05-29T07:04:36;95052.28;;;17.92;100.00
33155;BME280;19511;42.682;23.332;2023-05-29T07:07:02;94980.03;;;17.59;100.00
33155;BME280;19511;42.682;23.332;2023-05-29T07:09:27;95053.19;;;18.30;100.00
33155;BME280;19511;42.682;23.332;2023-05-29T07:11:53;95026.91;;;18.37;100.00
33155;BME280;19511;42.682;23.332;2023-05-29T07:14:18;95030.97;;;18.45;100.00
33155;BME280;19511;42.682;23.332;2023-05-29T07:16:48;95036.72;;;18.32;100.00
33155;BME280;19511;42.682;23.332;2023-05-29T07:19:13;95038.69;;;18.22;100.00
33155;BME280;19511;42.682;23.332;2023-05-29T07:21:45;94978.22;;;17.66;100.00
33155;BME280;19511;42.682;23.332;2023-05-29T07:24:11;95054.22;;;18.05;100.00
33155;BME280;19511;42.682;23.332;2023-05-29T07:26:37;94978.34;;;17.62;100.00
33155;BME280;19511;42.682;23.332;2023-05-29T07:29:06;94967.16;;;17.62;100.00
33155;BME280;19511;42.682;23.332;2023-05-29T07:31:33;95046.16;;;18.16;100.00
33155;BME280;19511;42.682;23.332;2023-05-29T07:34:03;95040.88;;;18.18;100.00
33155;BME280;19511;42.682;23.332;2023-05-29T07:36:30;94981.84;;;17.85;100.00
33155;BME280;19511;42.682;23.332;2023-05-29T07:39:06;95044.78;;;18.39;100.00
33155;BME280;19511;42.682;23.332;2023-05-29T07:41:36;95043.53;;;18.31;100.00
33155;BME280;19511;42.682;23.332;2023-05-29T07:44:08;95033.72;;;18.17;100.00
33155;BME280;19511;42.682;23.332;2023-05-29T07:46:42;95048.06;;;18.28;100.00
33155;BME280;19511;42.682;23.332;2023-05-29T07:49:07;95036.84;;;18.47;100.00
33155;BME280;19511;42.682;23.332;2023-05-29T07:51:35;95038.38;;;18.30;100.00
33155;BME280;19511;42.682;23.332;2023-05-29T07:54:01;95033.19;;;18.00;100.00
33155;BME280;19511;42.682;23.332;2023-05-29T07:56:26;95026.66;;;17.94;100.00
33155;BME280;19511;42.682;23.332;2023-05-29T07:58:55;95043.28;;;17.98;100.00
33155;BME280;19511;42.682;23.332;2023-05-29T08:01:20;95018.53;;;17.87;100.00
33155;BME280;19511;42.682;23.332;2023-05-29T08:03:56;95032.44;;;18.09;100.00
33155;BME280;19511;42.682;23.332;2023-05-29T08:06:24;95028.41;;;18.10;100.00
33155;BME280;19511;42.682;23.332;2023-05-29T08:08:50;95029.06;;;18.33;100.00
33155;BME280;19511;42.682;23.332;2023-05-29T08:11:18;95050.72;;;18.60;100.00
33155;BME280;19511;42.682;23.332;2023-05-29T08:13:46;95040.44;;;18.48;100.00
33155;BME280;19511;42.682;23.332;2023-05-29T08:16:15;95034.84;;;18.66;100.00
33155;BME280;19511;42.682;23.332;2023-05-29T08:18:42;95032.38;;;18.87;100.00
33155;BME280;19511;42.682;23.332;2023-05-29T08:21:07;95043.28;;;18.94;100.00
33155;BME280;19511;42.682;23.332;2023-05-29T08:23:34;95037.50;;;18.88;100.00
33155;BME280;19511;42.682;23.332;2023-05-29T08:26:00;95023.78;;;18.81;100.00
33155;BME280;19511;42.682;23.332;2023-05-29T08:28:28;95029.41;;;18.81;100.00
33155;BME280;19511;42.682;23.332;2023-05-29T08:30:54;95034.69;;;18.88;100.00
33155;BME280;19511;42.682;23.332;2023-05-29T08:33:19;94999.22;;;18.95;100.00
33155;BME280;19511;42.682;23.332;2023-05-29T08:35:45;95038.34;;;19.50;100.00
33155;BME280;19511;42.682;23.332;2023-05-29T08:38:10;95039.56;;;19.58;100.00
33155;BME280;19511;42.682;23.332;2023-05-29T08:40:36;95029.25;;;19.65;100.00
33155;BME280;19511;42.682;23.332;2023-05-29T08:45:47;95025.06;;;20.03;100.00
33155;BME280;19511;42.682;23.332;2023-05-29T08:48:22;95023.22;;;20.00;100.00
33155;BME280;19511;42.682;23.332;2023-05-29T08:50:52;95014.00;;;19.99;100.00
33155;BME280;19511;42.682;23.332;2023-05-29T08:53:21;95013.91;;;19.84;100.00
33155;BME280;19511;42.682;23.332;2023-05-29T08:55:49;95008.16;;;19.79;100.00
33155;BME280;19511;42.682;23.332;2023-05-29T08:58:19;95015.66;;;20.06;100.00
33155;BME280;19511;42.682;23.332;2023-05-29T09:00:46;94995.72;;;20.04;100.00
33155;BME280;19511;42.682;23.332;2023-05-29T09:03:12;95013.34;;;20.04;100.00
33155;BME280;19511;42.682;23.332;2023-05-29T09:05:44;95009.28;;;20.05;100.00
33155;BME280;19511;42.682;23.332;2023-05-29T09:08:16;95008.50;;;20.05;100.00
33155;BME280;19511;42.682;23.332;2023-05-29T09:10:42;95012.09;;;20.30;100.00
33155;BME280;19511;42.682;23.332;2023-05-29T09:13:09;94989.44;;;20.33;100.00
33155;BME280;19511;42.682;23.332;2023-05-29T09:15:42;95002.66;;;20.42;100.00
33155;BME280;19511;42.682;23.332;2023-05-29T09:18:11;94984.50;;;20.04;100.00
33155;BME280;19511;42.682;23.332;2023-05-29T09:20:39;94999.06;;;19.93;100.00
33155;BME280;19511;42.682;23.332;2023-05-29T09:23:08;94995.72;;;20.04;100.00
33155;BME280;19511;42.682;23.332;2023-05-29T09:25:43;94973.63;;;19.97;100.00
33155;BME280;19511;42.682;23.332;2023-05-29T09:28:08;94989.56;;;20.15;100.00
33155;BME280;19511;42.682;23.332;2023-05-29T09:30:36;94983.78;;;20.18;100.00
33155;BME280;19511;42.682;23.332;2023-05-29T09:33:04;94961.25;;;20.03;100.00
33155;BME280;19511;42.682;23.332;2023-05-29T09:38:05;94901.31;;;19.24;100.00
33155;BME280;19511;42.682;23.332;2023-05-29T09:40:33;94966.81;;;19.79;100.00
33155;BME280;19511;42.682;23.332;2023-05-29T09:43:09;94965.53;;;19.89;100.00
33155;BME280;19511;42.682;23.332;2023-05-29T09:45:39;94964.66;;;20.32;100.00
33155;BME280;19511;42.682;23.332;2023-05-29T09:48:22;94959.75;;;20.56;100.00
33155;BME280;19511;42.682;23.332;2023-05-29T09:50:50;94953.53;;;20.77;100.00
33155;BME280;19511;42.682;23.332;2023-05-29T09:53:20;94952.38;;;20.98;100.00
33155;BME280;19511;42.682;23.332;2023-05-29T09:55:50;94959.75;;;20.96;100.00
33155;BME280;19511;42.682;23.332;2023-05-29T09:58:19;94957.25;;;20.59;100.00
33155;BME280;19511;42.682;23.332;2023-05-29T10:00:49;94948.28;;;20.30;100.00
33155;BME280;19511;42.682;23.332;2023-05-29T10:03:17;94943.78;;;20.23;100.00
33155;BME280;19511;42.682;23.332;2023-05-29T10:05:46;94878.25;;;19.78;100.00
33155;BME280;19511;42.682;23.332;2023-05-29T10:08:17;94819.84;;;19.52;100.00
33155;BME280;19511;42.682;23.332;2023-05-29T10:10:48;94930.72;;;20.60;100.00
33155;BME280;19511;42.682;23.332;2023-05-29T10:13:19;94935.13;;;21.06;100.00
33155;BME280;19511;42.682;23.332;2023-05-29T10:15:51;94947.69;;;21.40;100.00
33155;BME280;19511;42.682;23.332;2023-05-29T10:18:20;94947.63;;;21.19;100.00
33155;BME280;19511;42.682;23.332;2023-05-29T10:20:49;94933.06;;;21.36;100.00
33155;BME280;19511;42.682;23.332;2023-05-29T10:23:21;94930.13;;;21.45;100.00
33155;BME280;19511;42.682;23.332;2023-05-29T10:25:55;94930.44;;;21.47;100.00
33155;BME280;19511;42.682;23.332;2023-05-29T10:28:22;94868.78;;;21.14;100.00
33155;BME280;19511;42.682;23.332;2023-05-29T10:30:53;94931.00;;;21.66;100.00
33155;BME280;19511;42.682;23.332;2023-05-29T10:36:20;94925.03;;;22.00;100.00
33155;BME280;19511;42.682;23.332;2023-05-29T10:38:50;94865.63;;;21.77;100.00
33155;BME280;19511;42.682;23.332;2023-05-29T10:44:00;94926.66;;;21.86;100.00
33155;BME280;19511;42.682;23.332;2023-05-29T10:49:20;94918.97;;;21.51;100.00
33155;BME280;19511;42.682;23.332;2023-05-29T10:51:50;94917.84;;;21.28;100.00
33155;BME280;19511;42.682;23.332;2023-05-29T10:54:21;94908.19;;;20.99;100.00
33155;BME280;19511;42.682;23.332;2023-05-29T10:56:58;94825.09;;;20.23;100.00
33155;BME280;19511;42.682;23.332;2023-05-29T10:59:26;94900.69;;;20.66;100.00
33155;BME280;19511;42.682;23.332;2023-05-29T11:01:55;94907.56;;;20.65;100.00
33155;BME280;19511;42.682;23.332;2023-05-29T11:06:51;94830.31;;;20.15;100.00
33155;BME280;19511;42.682;23.332;2023-05-29T11:12:24;94893.63;;;20.85;100.00
33155;BME280;19511;42.682;23.332;2023-05-29T11:15:03;94830.25;;;20.54;100.00
33155;BME280;19511;42.682;23.332;2023-05-29T11:17:30;94901.56;;;21.17;100.00
33155;BME280;19511;42.682;23.332;2023-05-29T11:19:57;94892.59;;;21.48;100.00
33155;BME280;19511;42.682;23.332;2023-05-29T11:22:53;94892.38;;;21.88;100.00
33155;BME280;19511;42.682;23.332;2023-05-29T11:25:21;94837.25;;;21.81;100.00
33155;BME280;19511;42.682;23.332;2023-05-29T11:27:47;94865.09;;;22.61;100.00
33155;BME280;19511;42.682;23.332;2023-05-29T11:30:12;94875.28;;;22.59;100.00
33155;BME280;19511;42.682;23.332;2023-05-29T11:32:39;94872.53;;;22.64;100.00
33155;BME280;19511;42.682;23.332;2023-05-29T11:35:16;94881.97;;;21.94;100.00
33155;BME280;19511;42.682;23.332;2023-05-29T11:37:44;94885.53;;;22.35;100.00
33155;BME280;19511;42.682;23.332;2023-05-29T11:40:14;94880.22;;;22.38;100.00
33155;BME280;19511;42.682;23.332;2023-05-29T11:42:44;94807.88;;;22.55;100.00
33155;BME280;19511;42.682;23.332;2023-05-29T11:50:21;94877.44;;;22.96;100.00
33155;BME280;19511;42.682;23.332;2023-05-29T11:52:47;94877.06;;;22.35;100.00
33155;BME280;19511;42.682;23.332;2023-05-29T11:55:20;94866.75;;;22.06;100.00
33155;BME280;19511;42.682;23.332;2023-05-29T11:57:51;94877.69;;;21.98;100.00
33155;BME280;19511;42.682;23.332;2023-05-29T12:00:18;94873.25;;;21.92;100.00
33155;BME280;19511;42.682;23.332;2023-05-29T12:02:48;94885.63;;;21.44;100.00
33155;BME280;19511;42.682;23.332;2023-05-29T12:05:16;94881.94;;;21.37;100.00
33155;BME280;19511;42.682;23.332;2023-05-29T12:07:51;94864.53;;;21.18;100.00
33155;BME280;19511;42.682;23.332;2023-05-29T12:10:18;94884.91;;;20.83;100.00
33155;BME280;19511;42.682;23.332;2023-05-29T12:12:54;94884.09;;;20.53;100.00
33155;BME280;19511;42.682;23.332;2023-05-29T12:15:21;94837.81;;;19.70;100.00
33155;BME280;19511;42.682;23.332;2023-05-29T12:17:48;94927.75;;;20.00;100.00
33155;BME280;19511;42.682;23.332;2023-05-29T12:20:16;94918.66;;;19.47;100.00
33155;BME280;19511;42.682;23.332;2023-05-29T12:22:43;94933.47;;;19.05;100.00
33155;BME280;19511;42.682;23.332;2023-05-29T12:25:10;94875.72;;;18.27;100.00
33155;BME280;19511;42.682;23.332;2023-05-29T12:27:45;94952.66;;;18.97;100.00
33155;BME280;19511;42.682;23.332;2023-05-29T12:32:44;94970.56;;;18.72;100.00
33155;BME280;19511;42.682;23.332;2023-05-29T12:37:42;94956.41;;;17.51;100.00
33155;BME280;19511;42.682;23.332;2023-05-29T12:40:17;94977.16;;;17.32;100.00
33155;BME280;19511;42.682;23.332;2023-05-29T12:42:47;94972.03;;;17.39;100.00
33155;BME280;19511;42.682;23.332;2023-05-29T12:45:13;94962.13;;;17.07;100.00
33155;BME280;19511;42.682;23.332;2023-05-29T12:48:05;94965.31;;;17.27;100.00
33155;BME280;19511;42.682;23.332;2023-05-29T12:50:35;94889.16;;;16.51;100.00
33155;BME280;19511;42.682;23.332;2023-05-29T12:53:04;94966.00;;;17.00;100.00
33155;BME280;19511;42.682;23.332;2023-05-29T12:55:38;94961.94;;;17.33;100.00
33155;BME280;19511;42.682;23.332;2023-05-29T12:58:09;94891.66;;;17.03;100.00
33155;BME280;19511;42.682;23.332;2023-05-29T13:00:36;94958.19;;;17.26;100.00
33155;BME280;19511;42.682;23.332;2023-05-29T13:03:04;94945.72;;;17.18;100.00
33155;BME280;19511;42.682;23.332;2023-05-29T13:05:29;94959.72;;;17.68;100.00
33155;BME280;19511;42.682;23.332;2023-05-29T13:07:55;94879.41;;;17.78;100.00
33155;BME280;19511;42.682;23.332;2023-05-29T13:10:26;94955.78;;;18.62;100.00
33155;BME280;19511;42.682;23.332;2023-05-29T13:12:57;94955.00;;;18.99;100.00
33155;BME280;19511;42.682;23.332;2023-05-29T13:15:25;94882.38;;;19.10;100.00
33155;BME280;19511;42.682;23.332;2023-05-29T13:17:54;94938.19;;;19.99;100.00
33155;BME280;19511;42.682;23.332;2023-05-29T13:20:20;94928.13;;;19.93;100.00
33155;BME280;19511;42.682;23.332;2023-05-29T13:22:50;94924.94;;;20.24;100.00